createdAt,value
2022-10-10T00:01:31.928Z,101301.00
2022-10-10T00:03:59.752Z,101304.00
2022-10-10T00:06:32.490Z,101300.00
2022-10-10T00:09:00.770Z,101297.00
2022-10-10T00:11:28.274Z,101302.00
2022-10-10T00:13:55.399Z,101298.00
2022-10-10T00:16:22.452Z,101298.00
2022-10-10T00:18:49.522Z,101296.00
2022-10-10T00:21:16.669Z,101265.00
2022-10-10T00:23:43.610Z,101281.00
2022-10-10T00:26:13.723Z,101280.00
2022-10-10T00:28:44.598Z,101287.00
2022-10-10T00:31:11.706Z,101281.00
2022-10-10T00:33:38.629Z,101285.00
2022-10-10T00:36:07.257Z,101276.00
2022-10-10T00:38:34.376Z,101287.00
2022-10-10T00:41:02.091Z,101288.00
2022-10-10T00:43:31.280Z,101291.00
2022-10-10T00:45:58.454Z,101288.00
2022-10-10T00:48:35.675Z,101287.00
2022-10-10T00:51:20.676Z,101284.00
2022-10-10T00:54:04.094Z,101286.00
2022-10-10T00:56:50.680Z,101280.00
2022-10-10T00:59:19.929Z,101272.00
2022-10-10T01:01:47.306Z,101277.00
2022-10-10T01:04:36.150Z,101277.00
2022-10-10T01:07:12.600Z,101276.00
2022-10-10T01:09:43.437Z,101258.00
2022-10-10T01:12:33.616Z,101255.00
2022-10-10T01:15:03.206Z,101259.00
2022-10-10T01:17:38.309Z,101257.00
2022-10-10T01:20:08.310Z,101251.00
2022-10-10T01:23:09.028Z,101250.00
2022-10-10T01:26:26.754Z,101257.00
2022-10-10T01:29:03.371Z,101249.00
2022-10-10T01:31:35.403Z,101243.00
2022-10-10T01:34:59.836Z,101255.00
2022-10-10T01:37:59.806Z,101248.00
2022-10-10T01:40:53.772Z,101241.00
2022-10-10T01:43:20.725Z,101250.00
2022-10-10T01:45:51.871Z,101250.00
2022-10-10T01:48:30.804Z,101260.00
2022-10-10T01:51:33.214Z,101242.00
2022-10-10T01:54:34.318Z,101242.00
2022-10-10T01:57:06.890Z,101248.00
2022-10-10T02:00:05.235Z,101241.00
2022-10-10T02:02:56.799Z,101248.00
2022-10-10T02:05:50.172Z,101204.00
2022-10-10T02:08:40.839Z,101247.00
2022-10-10T02:11:11.430Z,101243.00
2022-10-10T02:14:15.923Z,101246.00
2022-10-10T02:16:49.566Z,101238.00
2022-10-10T02:19:21.199Z,101249.00
2022-10-10T02:21:51.797Z,101239.00
2022-10-10T02:24:22.368Z,101231.00
2022-10-10T02:27:16.275Z,101244.00
2022-10-10T02:29:45.462Z,101240.00
2022-10-10T02:32:29.398Z,101221.00
2022-10-10T02:35:03.251Z,101245.00
2022-10-10T02:37:31.019Z,101234.00
2022-10-10T02:40:02.964Z,101218.00
2022-10-10T02:42:30.980Z,101243.00
2022-10-10T02:44:58.348Z,101234.00
2022-10-10T02:47:25.493Z,101239.00
2022-10-10T02:49:52.453Z,101233.00
2022-10-10T02:52:19.694Z,101232.00
2022-10-10T02:54:46.996Z,101229.00
2022-10-10T02:57:14.291Z,101238.00
2022-10-10T02:59:41.724Z,101231.00
2022-10-10T03:02:08.790Z,101239.00
2022-10-10T03:04:36.598Z,101207.00
2022-10-10T03:07:05.403Z,101229.00
2022-10-10T03:09:33.478Z,101238.00
2022-10-10T03:12:00.382Z,101226.00
2022-10-10T03:14:27.349Z,101217.00
2022-10-10T03:16:54.323Z,101213.00
2022-10-10T03:19:21.236Z,101221.00
2022-10-10T03:21:48.187Z,101216.00
2022-10-10T03:24:15.912Z,101221.00
2022-10-10T03:26:42.859Z,101226.00
2022-10-10T03:29:09.848Z,101223.00
2022-10-10T03:31:36.774Z,101213.00
2022-10-10T03:34:03.716Z,101218.00
2022-10-10T03:36:31.328Z,101213.00
2022-10-10T03:38:58.247Z,101208.00
2022-10-10T03:41:25.223Z,101223.00
2022-10-10T03:43:52.204Z,101220.00
2022-10-10T03:46:19.795Z,101222.00
2022-10-10T03:48:47.222Z,101213.00
2022-10-10T03:51:14.650Z,101211.00
2022-10-10T03:53:41.807Z,101203.00
2022-10-10T03:56:08.757Z,101211.00
2022-10-10T03:58:35.794Z,101213.00
2022-10-10T04:01:04.580Z,101204.00
2022-10-10T04:03:31.953Z,101205.00
2022-10-10T04:05:59.180Z,101202.00
2022-10-10T04:08:26.653Z,101209.00
2022-10-10T04:10:54.707Z,101200.00
2022-10-10T04:13:22.683Z,101210.00
2022-10-10T04:15:55.345Z,101201.00
2022-10-10T04:18:23.266Z,101207.00
2022-10-10T04:20:50.258Z,101209.00
2022-10-10T04:23:17.330Z,101204.00
2022-10-10T04:25:51.259Z,101208.00
2022-10-10T04:28:19.063Z,101188.00
2022-10-10T04:30:49.588Z,101198.00
2022-10-10T04:33:16.542Z,101199.00
2022-10-10T04:35:43.568Z,101192.00
2022-10-10T04:38:10.454Z,101193.00
2022-10-10T04:40:38.028Z,101191.00
2022-10-10T04:43:05.098Z,101188.00
2022-10-10T04:45:37.227Z,101198.00
2022-10-10T04:48:05.003Z,101194.00
2022-10-10T04:50:33.369Z,101185.00
2022-10-10T04:53:00.328Z,101133.00
2022-10-10T04:55:27.789Z,101189.00
2022-10-10T04:57:54.744Z,101176.00
2022-10-10T05:00:21.689Z,101184.00
2022-10-10T05:02:49.013Z,101181.00
2022-10-10T05:05:16.624Z,101185.00
2022-10-10T05:07:43.552Z,101177.00
2022-10-10T05:10:10.539Z,101174.00
2022-10-10T05:12:37.444Z,101172.00
2022-10-10T05:15:04.649Z,101169.00
2022-10-10T05:17:31.552Z,101183.00
2022-10-10T05:19:58.450Z,101174.00
2022-10-10T05:22:25.498Z,101164.00
2022-10-10T05:24:52.408Z,101171.00
2022-10-10T05:27:19.362Z,101170.00
2022-10-10T05:29:46.322Z,101185.00
2022-10-10T05:32:13.322Z,101167.00
2022-10-10T05:34:40.258Z,101167.00
2022-10-10T05:37:07.205Z,101163.00
2022-10-10T05:39:34.270Z,101167.00
2022-10-10T05:42:01.575Z,101169.00
2022-10-10T05:44:28.551Z,101163.00
2022-10-10T05:46:55.485Z,101165.00
2022-10-10T05:49:22.496Z,101163.00
2022-10-10T05:51:49.502Z,101166.00
2022-10-10T05:54:16.488Z,101166.00
2022-10-10T05:56:43.690Z,101158.00
2022-10-10T05:59:10.634Z,101163.00
2022-10-10T06:01:40.134Z,101164.00
2022-10-10T06:04:07.389Z,101149.00
2022-10-10T06:06:34.328Z,101159.00
2022-10-10T06:09:01.249Z,101157.00
2022-10-10T06:11:29.235Z,101156.00
2022-10-10T06:13:57.086Z,101160.00
2022-10-10T06:16:26.824Z,101166.00
2022-10-10T06:18:57.063Z,101162.00
2022-10-10T06:21:25.758Z,101158.00
2022-10-10T06:23:52.899Z,101162.00
2022-10-10T06:26:19.980Z,101162.00
2022-10-10T06:28:47.419Z,101142.00
2022-10-10T06:31:15.169Z,101157.00
2022-10-10T06:33:45.576Z,101156.00
2022-10-10T06:36:15.036Z,101156.00
2022-10-10T06:38:45.090Z,101153.00
2022-10-10T06:41:12.999Z,101161.00
2022-10-10T06:43:41.414Z,101154.00
2022-10-10T06:46:09.634Z,101157.00
2022-10-10T06:48:36.645Z,101153.00
2022-10-10T06:51:12.922Z,101154.00
2022-10-10T06:53:39.888Z,101158.00
2022-10-10T06:56:06.871Z,101156.00
2022-10-10T06:58:34.417Z,101158.00
2022-10-10T07:01:04.446Z,101155.00
2022-10-10T07:03:31.706Z,101162.00
2022-10-10T07:06:02.322Z,101160.00
2022-10-10T07:08:30.545Z,101149.00
2022-10-10T07:10:57.520Z,101163.00
2022-10-10T07:13:24.434Z,101162.00
2022-10-10T07:15:51.317Z,101157.00
2022-10-10T07:18:19.898Z,101161.00
2022-10-10T07:20:47.112Z,101160.00
2022-10-10T07:23:14.780Z,101157.00
2022-10-10T07:25:44.398Z,101156.00
2022-10-10T07:28:11.929Z,101147.00
2022-10-10T07:30:44.897Z,101156.00
2022-10-10T07:33:14.242Z,101153.00
2022-10-10T07:35:41.988Z,101146.00
2022-10-10T07:38:11.570Z,101154.00
2022-10-10T07:40:41.489Z,101154.00
2022-10-10T07:43:08.480Z,101154.00
2022-10-10T07:45:37.152Z,101142.00
2022-10-10T07:48:04.682Z,101150.00
2022-10-10T07:50:31.636Z,101146.00
2022-10-10T07:52:58.609Z,101144.00
2022-10-10T07:55:25.806Z,101137.00
2022-10-10T07:57:53.577Z,101126.00
2022-10-10T08:00:20.952Z,101130.00
2022-10-10T08:02:47.853Z,101123.00
2022-10-10T08:05:14.865Z,101119.00
2022-10-10T08:07:41.788Z,101121.00
2022-10-10T08:10:09.861Z,101121.00
2022-10-10T08:12:36.913Z,101115.00
2022-10-10T08:15:06.311Z,101115.00
2022-10-10T08:17:33.742Z,101111.00
2022-10-10T08:20:00.682Z,101113.00
2022-10-10T08:22:27.611Z,101096.00
2022-10-10T08:24:54.544Z,101109.00
2022-10-10T08:27:21.550Z,101101.00
2022-10-10T08:29:48.488Z,101095.00
2022-10-10T08:32:15.486Z,101094.00
2022-10-10T08:34:42.561Z,101087.00
2022-10-10T08:37:09.466Z,101091.00
2022-10-10T08:39:36.452Z,101095.00
2022-10-10T08:42:03.850Z,101089.00
2022-10-10T08:44:41.146Z,101088.00
2022-10-10T08:47:38.852Z,101095.00
2022-10-10T08:50:16.842Z,101079.00
2022-10-10T08:53:08.676Z,101070.00
2022-10-10T08:55:40.738Z,101068.00
2022-10-10T08:58:18.630Z,101069.00
2022-10-10T09:00:53.075Z,101065.00
2022-10-10T09:03:48.972Z,101055.00
2022-10-10T09:06:33.900Z,101056.00
2022-10-10T09:09:03.751Z,101056.00
2022-10-10T09:11:36.312Z,101045.00
2022-10-10T09:14:39.486Z,101045.00
2022-10-10T09:17:54.655Z,101037.00
2022-10-10T09:20:52.134Z,101035.00
2022-10-10T09:23:47.092Z,101018.00
2022-10-10T09:26:19.944Z,101024.00
2022-10-10T09:29:22.271Z,101035.00
2022-10-10T09:32:00.729Z,101020.00
2022-10-10T09:34:37.314Z,101019.00
2022-10-10T09:37:24.376Z,101016.00
2022-10-10T09:40:30.140Z,101010.00
2022-10-10T09:42:57.428Z,101006.00
2022-10-10T09:45:43.885Z,100994.00
2022-10-10T09:48:11.272Z,101004.00
2022-10-10T09:50:41.767Z,101002.00
2022-10-10T09:53:16.241Z,100992.00
2022-10-10T09:55:46.001Z,100989.00
2022-10-10T09:58:42.166Z,100994.00
2022-10-10T10:01:27.361Z,100986.00
2022-10-10T10:04:28.320Z,100979.00
2022-10-10T10:07:18.227Z,100975.00
2022-10-10T10:10:23.584Z,100974.00
2022-10-10T10:12:52.092Z,100967.00
2022-10-10T10:15:26.656Z,100955.00
2022-10-10T10:18:38.874Z,100956.00
2022-10-10T10:21:13.743Z,100956.00
2022-10-10T10:23:51.684Z,100950.00
2022-10-10T10:26:41.957Z,100948.00
2022-10-10T10:29:27.733Z,100938.00
2022-10-10T10:32:36.084Z,100923.00
2022-10-10T10:35:28.371Z,100925.00
2022-10-10T10:38:21.778Z,100926.00
2022-10-10T10:41:08.107Z,100924.00
2022-10-10T10:44:03.590Z,100936.00
2022-10-10T10:47:32.605Z,100914.00
2022-10-10T10:50:18.012Z,100908.00
2022-10-10T10:53:15.563Z,100903.00
2022-10-10T10:56:08.659Z,100910.00
2022-10-10T11:00:26.380Z,100902.00
2022-10-10T11:03:28.009Z,100893.00
2022-10-10T11:06:49.122Z,100886.00
2022-10-10T11:10:20.364Z,100873.00
2022-10-10T11:13:19.452Z,100870.00
2022-10-10T11:16:06.100Z,100873.00
2022-10-10T11:18:50.823Z,100858.00
2022-10-10T11:21:44.816Z,100853.00
2022-10-10T11:24:27.386Z,100850.00
2022-10-10T11:27:04.191Z,100855.00
2022-10-10T11:29:54.216Z,100853.00
2022-10-10T11:33:07.454Z,100847.00
2022-10-10T11:36:18.328Z,100837.00
2022-10-10T11:38:58.128Z,100834.00
2022-10-10T11:41:41.681Z,100827.00
2022-10-10T11:44:36.386Z,100827.00
2022-10-10T11:47:25.890Z,100818.00
2022-10-10T11:50:11.365Z,100820.00
2022-10-10T11:53:04.906Z,100797.00
2022-10-10T11:56:08.463Z,100803.00
2022-10-10T11:58:44.628Z,100788.00
2022-10-10T12:01:27.272Z,100789.00
2022-10-10T12:03:54.569Z,100785.00
2022-10-10T12:06:24.189Z,100779.00
2022-10-10T12:09:00.146Z,100772.00
2022-10-10T12:12:10.240Z,100775.00
2022-10-10T12:14:43.998Z,100775.00
2022-10-10T12:17:36.119Z,100777.00
2022-10-10T12:20:25.757Z,100771.00
2022-10-10T12:23:24.613Z,100762.00
2022-10-10T12:25:51.580Z,100761.00
2022-10-10T12:28:18.538Z,100753.00
2022-10-10T12:30:58.668Z,100754.00
2022-10-10T12:33:31.742Z,100744.00
2022-10-10T12:36:21.382Z,100751.00
2022-10-10T12:39:06.125Z,100734.00
2022-10-10T12:41:56.855Z,100723.00
2022-10-10T12:44:46.456Z,100725.00
2022-10-10T12:47:16.046Z,100723.00
2022-10-10T12:49:55.562Z,100720.00
2022-10-10T12:52:35.880Z,100717.00
2022-10-10T12:55:19.715Z,100711.00
2022-10-10T12:57:49.950Z,100712.00
2022-10-10T13:00:20.639Z,100707.00
2022-10-10T13:02:55.159Z,100639.00
2022-10-10T13:05:33.978Z,100704.00
2022-10-10T13:08:08.319Z,100690.00
2022-10-10T13:10:35.260Z,100686.00
2022-10-10T13:13:20.409Z,100685.00
2022-10-10T13:15:59.459Z,100684.00
2022-10-10T13:18:40.876Z,100678.00
2022-10-10T13:21:17.926Z,100679.00
2022-10-10T13:26:49.901Z,100665.00
2022-10-10T13:29:39.473Z,100675.00
2022-10-10T13:32:17.670Z,100665.00
2022-10-10T13:34:52.170Z,100660.00
2022-10-10T13:37:20.808Z,100668.00
2022-10-10T13:39:51.265Z,100659.00
2022-10-10T13:42:35.012Z,100652.00
2022-10-10T13:45:38.631Z,100650.00
2022-10-10T13:48:17.671Z,100640.00
2022-10-10T13:50:44.516Z,100640.00
2022-10-10T13:53:30.408Z,100639.00
2022-10-10T13:56:24.526Z,100630.00
2022-10-10T13:59:00.710Z,100630.00
2022-10-10T14:01:29.984Z,100625.00
2022-10-10T14:04:05.853Z,100628.00
2022-10-10T14:06:33.787Z,100630.00
2022-10-10T14:09:39.602Z,100622.00
2022-10-10T14:12:17.099Z,100620.00
2022-10-10T14:14:49.473Z,100611.00
2022-10-10T14:17:16.854Z,100614.00
2022-10-10T14:19:46.461Z,100611.00
2022-10-10T14:22:13.560Z,100602.00
2022-10-10T14:24:40.555Z,100604.00
2022-10-10T14:27:15.396Z,100602.00
2022-10-10T14:29:42.943Z,100603.00
2022-10-10T14:32:11.485Z,100581.00
2022-10-10T14:34:38.873Z,100593.00
2022-10-10T14:37:10.561Z,100595.00
2022-10-10T14:39:37.460Z,100590.00
2022-10-10T14:42:12.938Z,100577.00
2022-10-10T14:44:40.127Z,100587.00
2022-10-10T14:47:07.303Z,100583.00
2022-10-10T14:49:34.255Z,100582.00
2022-10-10T14:52:01.634Z,100586.00
2022-10-10T14:54:28.595Z,100557.00
2022-10-10T14:57:07.691Z,100568.00
2022-10-10T14:59:46.537Z,100575.00
2022-10-10T15:02:21.894Z,100561.00
2022-10-10T15:04:49.596Z,100553.00
2022-10-10T15:07:17.764Z,100543.00
2022-10-10T15:10:17.667Z,100559.00
2022-10-10T15:12:36.972Z,100565.00
2022-10-10T15:15:06.266Z,100554.00
2022-10-10T15:17:36.143Z,100554.00
2022-10-10T15:20:06.498Z,100555.00
2022-10-10T15:22:33.879Z,100553.00
2022-10-10T15:25:01.213Z,100558.00
2022-10-10T15:27:28.355Z,100562.00
2022-10-10T15:29:55.823Z,100560.00
2022-10-10T15:32:22.963Z,100550.00
2022-10-10T15:34:51.407Z,100545.00
2022-10-10T15:37:19.121Z,100543.00
2022-10-10T15:39:46.239Z,100535.00
2022-10-10T15:42:19.939Z,100534.00
2022-10-10T15:44:50.433Z,100546.00
2022-10-10T15:47:18.530Z,100541.00
2022-10-10T15:49:45.584Z,100544.00
2022-10-10T15:52:13.040Z,100542.00
2022-10-10T15:54:40.071Z,100548.00
2022-10-10T15:57:07.597Z,100543.00
2022-10-10T15:59:36.862Z,100547.00
2022-10-10T16:02:06.340Z,100542.00
2022-10-10T16:04:33.673Z,100546.00
2022-10-10T16:07:24.240Z,100541.00
2022-10-10T16:09:47.420Z,100539.00
2022-10-10T16:12:14.336Z,100534.00
2022-10-10T16:14:41.255Z,100528.00
2022-10-10T16:17:08.178Z,100527.00
2022-10-10T16:19:35.130Z,100530.00
2022-10-10T16:22:02.048Z,100530.00
2022-10-10T16:24:28.973Z,100534.00
2022-10-10T16:26:56.218Z,100527.00
2022-10-10T16:29:23.126Z,100525.00
2022-10-10T16:31:49.994Z,100528.00
2022-10-10T16:34:17.430Z,100524.00
2022-10-10T16:36:44.555Z,100523.00
2022-10-10T16:39:12.768Z,100516.00
2022-10-10T16:41:48.790Z,100521.00
2022-10-10T16:44:17.617Z,100499.00
2022-10-10T16:46:44.881Z,100523.00
2022-10-10T16:49:20.582Z,100522.00
2022-10-10T16:51:47.481Z,100525.00
2022-10-10T16:54:14.454Z,100522.00
2022-10-10T16:56:41.915Z,100529.00
2022-10-10T16:59:09.142Z,100518.00
2022-10-10T17:01:36.289Z,100514.00
2022-10-10T17:04:03.877Z,100520.00
2022-10-10T17:06:37.355Z,100512.00
2022-10-10T17:09:07.936Z,100512.00
2022-10-10T17:11:35.847Z,100520.00
2022-10-10T17:14:03.815Z,100514.00
2022-10-10T17:19:18.119Z,100508.00
2022-10-10T17:21:45.042Z,100513.00
2022-10-10T17:24:11.974Z,100499.00
2022-10-10T17:26:38.892Z,100505.00
2022-10-10T17:29:05.814Z,100508.00
2022-10-10T17:31:32.819Z,100500.00
2022-10-10T17:33:59.843Z,100499.00
2022-10-10T17:36:28.145Z,100478.00
2022-10-10T17:38:56.375Z,100492.00
2022-10-10T17:41:24.135Z,100493.00
2022-10-10T17:43:51.442Z,100486.00
2022-10-10T17:46:41.452Z,100490.00
2022-10-10T17:49:11.058Z,100483.00
2022-10-10T17:51:40.633Z,100485.00
2022-10-10T17:54:09.914Z,100477.00
2022-10-10T17:56:37.639Z,100478.00
2022-10-10T17:59:06.678Z,100488.00
2022-10-10T18:01:36.015Z,100483.00
2022-10-10T18:04:04.323Z,100476.00
2022-10-10T18:06:33.758Z,100467.00
2022-10-10T18:09:00.980Z,100452.00
2022-10-10T18:11:31.807Z,100471.00
2022-10-10T18:14:02.131Z,100453.00
2022-10-10T18:16:36.155Z,100464.00
2022-10-10T18:19:08.040Z,100462.00
2022-10-10T18:21:35.673Z,100457.00
2022-10-10T18:24:02.891Z,100455.00
2022-10-10T18:26:31.300Z,100450.00
2022-10-10T18:28:59.506Z,100440.00
2022-10-10T18:31:34.264Z,100445.00
2022-10-10T18:34:03.413Z,100438.00
2022-10-10T18:36:34.153Z,100429.00
2022-10-10T18:39:06.204Z,100426.00
2022-10-10T18:41:36.354Z,100424.00
2022-10-10T18:44:11.605Z,100418.00
2022-10-10T18:46:39.856Z,100424.00
2022-10-10T18:49:11.697Z,100416.00
2022-10-10T18:51:41.399Z,100420.00
2022-10-10T18:54:11.368Z,100405.00
2022-10-10T18:56:41.335Z,100408.00
2022-10-10T18:59:17.438Z,100405.00
2022-10-10T19:01:46.622Z,100399.00
2022-10-10T19:04:16.158Z,100396.00
2022-10-10T19:06:44.588Z,100397.00
2022-10-10T19:09:15.345Z,100389.00
2022-10-10T19:11:45.656Z,100390.00
2022-10-10T19:14:18.148Z,100382.00
2022-10-10T19:16:47.616Z,100374.00
2022-10-10T19:19:18.638Z,100374.00
2022-10-10T19:21:48.494Z,100375.00
2022-10-10T19:24:20.810Z,100379.00
2022-10-10T19:26:55.895Z,100363.00
2022-10-10T19:29:25.788Z,100361.00
2022-10-10T19:31:53.276Z,100339.00
2022-10-10T19:34:20.655Z,100362.00
2022-10-10T19:36:47.853Z,100355.00
2022-10-10T19:39:14.868Z,100357.00
2022-10-10T19:41:41.778Z,100361.00
2022-10-10T19:44:09.058Z,100349.00
2022-10-10T19:46:37.343Z,100349.00
2022-10-10T19:49:04.955Z,100346.00
2022-10-10T19:51:31.872Z,100344.00
2022-10-10T19:53:58.970Z,100337.00
2022-10-10T19:56:26.566Z,100349.00
2022-10-10T19:58:59.812Z,100344.00
2022-10-10T20:01:30.302Z,100349.00
2022-10-10T20:03:58.247Z,100338.00
2022-10-10T20:06:27.155Z,100341.00
2022-10-10T20:08:54.666Z,100335.00
2022-10-10T20:11:23.346Z,100342.00
2022-10-10T20:13:53.172Z,100343.00
2022-10-10T20:16:21.824Z,100341.00
2022-10-10T20:18:48.733Z,100339.00
2022-10-10T20:21:32.655Z,100335.00
2022-10-10T20:24:06.012Z,100316.00
2022-10-10T20:26:33.329Z,100338.00
2022-10-10T20:29:01.112Z,100335.00
2022-10-10T20:31:32.462Z,100333.00
2022-10-10T20:34:01.015Z,100332.00
2022-10-10T20:36:30.910Z,100334.00
2022-10-10T20:39:04.971Z,100330.00
2022-10-10T20:41:34.789Z,100330.00
2022-10-10T20:44:04.813Z,100332.00
2022-10-10T20:46:38.014Z,100325.00
2022-10-10T20:49:11.480Z,100324.00
2022-10-10T21:03:41.683Z,100323.00
2022-10-10T21:06:25.733Z,100277.00
2022-10-10T21:08:54.036Z,100326.00
2022-10-10T21:11:22.828Z,100337.00
2022-10-10T21:13:56.649Z,100331.00
2022-10-10T21:16:42.142Z,100336.00
2022-10-10T21:19:11.710Z,100323.00
2022-10-10T21:21:39.334Z,100324.00
2022-10-10T21:24:11.076Z,100314.00
2022-10-10T21:26:40.244Z,100305.00
2022-10-10T21:29:07.388Z,100311.00
2022-10-10T21:31:38.228Z,100315.00
2022-10-10T21:34:11.048Z,100313.00
2022-10-10T21:36:38.039Z,100310.00
2022-10-10T21:39:08.749Z,100313.00
2022-10-10T21:41:37.137Z,100317.00
2022-10-10T21:44:04.391Z,100310.00
2022-10-10T21:46:36.866Z,100308.00
2022-10-10T21:49:08.473Z,100316.00
2022-10-10T21:51:42.473Z,100314.00
2022-10-10T21:54:10.712Z,100312.00
2022-10-10T21:56:38.581Z,100313.00
2022-10-10T21:59:06.620Z,100312.00
2022-10-10T22:01:34.068Z,100312.00
2022-10-10T22:04:02.694Z,100306.00
2022-10-10T22:06:30.796Z,100313.00
2022-10-10T22:09:00.790Z,100308.00
2022-10-10T22:11:29.901Z,100306.00
2022-10-10T22:13:57.008Z,100311.00
2022-10-10T22:16:24.271Z,100304.00
2022-10-10T22:18:58.641Z,100309.00
2022-10-10T22:21:30.557Z,100312.00
2022-10-10T22:24:01.307Z,100293.00
2022-10-10T22:26:28.926Z,100308.00
2022-10-10T22:28:55.889Z,100304.00
2022-10-10T22:31:22.868Z,100303.00
2022-10-10T22:33:49.806Z,100299.00
2022-10-10T22:36:17.083Z,100278.00
2022-10-10T22:38:45.593Z,100307.00
2022-10-10T22:41:13.960Z,100295.00
2022-10-10T22:43:42.001Z,100293.00
2022-10-10T22:46:09.583Z,100283.00
2022-10-10T22:48:37.314Z,100267.00
2022-10-10T22:51:12.856Z,100285.00
2022-10-10T22:53:45.588Z,100269.00
2022-10-10T22:56:17.517Z,100285.00
2022-10-10T22:58:44.961Z,100283.00
2022-10-10T23:01:17.845Z,100279.00
2022-10-10T23:03:45.256Z,100288.00
2022-10-10T23:06:12.689Z,100282.00
2022-10-10T23:08:39.889Z,100288.00
2022-10-10T23:11:07.180Z,100294.00
2022-10-10T23:13:34.196Z,100292.00
2022-10-10T23:16:01.628Z,100293.00
2022-10-10T23:18:29.636Z,100296.00
2022-10-10T23:20:57.068Z,100287.00
2022-10-10T23:23:24.788Z,100288.00
2022-10-10T23:25:52.172Z,100288.00
2022-10-10T23:28:19.639Z,100282.00
2022-10-10T23:30:48.934Z,100286.00
2022-10-10T23:33:17.225Z,100286.00
2022-10-10T23:35:44.535Z,100299.00
2022-10-10T23:38:11.550Z,100287.00
2022-10-10T23:40:38.465Z,100280.00
2022-10-10T23:43:07.354Z,100281.00
2022-10-10T23:45:34.405Z,100274.00
2022-10-10T23:48:01.358Z,100275.00
2022-10-10T23:50:29.244Z,100279.00
2022-10-10T23:52:56.132Z,100278.00
2022-10-10T23:55:23.092Z,100273.00
2022-10-10T23:57:49.995Z,100275.00
